Time;durP1;ratioP1;P1;durP2;ratioP2;P2;SDS_P1;SDS_P2;PMS_P1;PMS_P2;Temp;Humidity;BMP_temperature;BMP_pressure;BME280_temperature;BME280_humidity;BME280_pressure;Samples;Min_cycle;Max_cycle;Signal;HPM_P1;HPM_P2
2022/03/04 00:02:24;;;;;;;1.95;1.40;;;18.90;46.10;;;;;;6244276;28;20584;-68
2022/03/04 00:05:24;;;;;;;1.70;1.13;;;18.90;46.10;;;;;;6244338;28;20036;-68
2022/03/04 00:08:25;;;;;;;2.40;1.50;;;18.90;46.10;;;;;;6244114;28;20029;-68
2022/03/04 00:11:25;;;;;;;1.67;1.17;;;18.90;46.20;;;;;;6244172;28;20032;-68
2022/03/04 00:14:26;;;;;;;2.35;0.98;;;18.90;46.20;;;;;;6244566;28;20494;-68
2022/03/04 00:17:26;;;;;;;1.92;1.40;;;18.90;46.10;;;;;;6243938;28;20570;-68
2022/03/04 00:20:27;;;;;;;1.17;1.00;;;18.90;46.10;;;;;;6243878;28;20480;-68
2022/03/04 00:23:28;;;;;;;1.27;0.80;;;18.90;46.10;;;;;;6243444;28;20041;-67
2022/03/04 00:26:29;;;;;;;1.80;1.23;;;18.90;46.20;;;;;;6244293;28;20022;-68
2022/03/04 00:29:30;;;;;;;1.80;1.20;;;18.90;46.10;;;;;;6243680;28;20419;-68
2022/03/04 00:32:30;;;;;;;1.45;1.10;;;18.90;46.20;;;;;;6243641;28;20026;-68
2022/03/04 00:35:31;;;;;;;1.30;0.93;;;18.90;46.20;;;;;;6244170;28;20468;-68
2022/03/04 00:38:31;;;;;;;2.00;1.20;;;18.90;46.20;;;;;;6243982;28;20152;-68
2022/03/04 00:41:32;;;;;;;1.33;0.95;;;18.90;46.20;;;;;;6242009;28;20381;-68
2022/03/04 00:44:33;;;;;;;3.03;1.10;;;18.90;46.20;;;;;;6219362;28;20049;-68
2022/03/04 00:47:33;;;;;;;1.63;1.05;;;18.90;46.10;;;;;;6219056;28;20117;-68
2022/03/04 00:50:34;;;;;;;1.48;1.15;;;18.90;46.20;;;;;;6218691;28;20038;-67
2022/03/04 00:53:34;;;;;;;2.17;1.40;;;18.90;46.20;;;;;;6243403;28;20105;-68
2022/03/04 00:56:36;;;;;;;1.92;1.10;;;18.90;46.20;;;;;;6243727;28;20099;-68
2022/03/04 00:59:37;;;;;;;1.40;1.15;;;18.90;46.20;;;;;;6243982;28;20036;-68
2022/03/04 01:02:37;;;;;;;1.13;0.95;;;18.90;46.20;;;;;;6243232;28;20417;-68
2022/03/04 01:05:38;;;;;;;1.35;1.10;;;18.90;46.20;;;;;;6243118;28;20104;-68
2022/03/04 01:08:38;;;;;;;1.42;1.00;;;18.90;46.20;;;;;;6243405;28;20029;-68
2022/03/04 01:11:39;;;;;;;1.52;0.90;;;18.90;46.10;;;;;;6243108;28;20033;-68
2022/03/04 01:14:39;;;;;;;1.10;0.90;;;18.90;46.20;;;;;;6243257;28;20025;-68
2022/03/04 01:17:40;;;;;;;1.50;1.10;;;18.90;46.20;;;;;;6242989;28;20052;-68
2022/03/04 01:20:41;;;;;;;1.25;1.10;;;18.90;46.30;;;;;;6243241;28;20087;-68
2022/03/04 01:23:42;;;;;;;1.42;1.00;;;18.90;46.20;;;;;;6242781;28;20452;-68
2022/03/04 01:26:42;;;;;;;0.70;0.70;;;18.90;46.20;;;;;;6243181;28;20033;-68
2022/03/04 01:29:43;;;;;;;1.20;1.00;;;18.90;46.20;;;;;;6243035;28;20396;-68
2022/03/04 01:32:43;;;;;;;1.30;0.90;;;18.90;46.20;;;;;;6243281;28;20490;-68
2022/03/04 01:35:44;;;;;;;1.20;1.00;;;18.90;46.10;;;;;;6243541;28;20033;-68
2022/03/04 01:38:44;;;;;;;1.15;0.93;;;18.90;46.20;;;;;;6243294;28;20030;-68
2022/03/04 01:41:45;;;;;;;1.20;0.90;;;18.90;46.20;;;;;;6239949;28;20041;-68
2022/03/04 01:44:45;;;;;;;1.73;1.10;;;18.90;46.10;;;;;;6218436;28;20076;-66
2022/03/04 01:47:46;;;;;;;1.52;1.05;;;18.90;46.10;;;;;;6218283;28;20251;-66
2022/03/04 01:50:51;;;;;;;1.25;1.05;;;18.90;46.20;;;;;;6220211;28;20030;-68
2022/03/04 01:53:51;;;;;;;2.97;0.93;;;18.90;46.20;;;;;;6242662;28;20025;-68
2022/03/04 01:56:52;;;;;;;1.77;1.10;;;18.90;46.20;;;;;;6242300;28;20338;-68
2022/03/04 01:59:53;;;;;;;1.15;1.00;;;18.90;46.20;;;;;;6242928;28;20445;-68
2022/03/04 02:02:57;;;;;;;1.48;1.13;;;18.90;46.20;;;;;;6245841;28;20033;-68
2022/03/04 02:05:57;;;;;;;1.60;1.05;;;18.90;46.20;;;;;;6246830;28;20040;-67
2022/03/04 02:08:58;;;;;;;1.58;1.02;;;18.90;46.30;;;;;;6245708;28;20396;-67
2022/03/04 02:12:00;;;;;;;1.48;0.90;;;18.90;46.20;;;;;;6246918;28;20028;-68
2022/03/04 02:15:00;;;;;;;1.17;0.80;;;18.90;46.30;;;;;;6247110;28;20022;-68
2022/03/04 02:18:10;;;;;;;0.95;0.82;;;18.90;46.30;;;;;;6246702;28;20048;-67
2022/03/04 02:21:13;;;;;;;1.17;0.95;;;18.90;46.30;;;;;;6246759;28;20071;-67
2022/03/04 02:24:14;;;;;;;0.98;0.82;;;18.90;46.30;;;;;;6246433;28;20075;-68
2022/03/04 02:27:14;;;;;;;1.52;1.10;;;18.90;46.40;;;;;;6245867;28;20041;-67
2022/03/04 02:30:16;;;;;;;1.60;1.00;;;18.80;46.20;;;;;;6246600;28;20500;-68
2022/03/04 02:33:16;;;;;;;1.35;1.00;;;18.90;46.30;;;;;;6246312;28;20028;-67
2022/03/04 02:36:17;;;;;;;1.30;0.95;;;18.90;46.30;;;;;;6246763;28;20026;-68
2022/03/04 02:39:18;;;;;;;1.30;1.10;;;18.90;46.30;;;;;;6245933;28;20503;-67
2022/03/04 02:42:19;;;;;;;1.83;1.10;;;18.90;46.30;;;;;;6238537;28;20473;-68
2022/03/04 02:45:19;;;;;;;1.38;1.05;;;18.80;46.20;;;;;;6221790;28;20057;-68
2022/03/04 02:48:20;;;;;;;1.33;1.00;;;18.90;46.20;;;;;;6221991;28;20061;-67
2022/03/04 02:51:20;;;;;;;2.10;1.25;;;18.90;46.30;;;;;;6227871;28;20251;-68
2022/03/04 02:54:21;;;;;;;3.95;0.98;;;18.90;46.20;;;;;;6245661;28;20025;-67
2022/03/04 02:57:21;;;;;;;1.20;0.90;;;18.80;46.20;;;;;;6246012;28;20030;-68
2022/03/04 03:00:22;;;;;;;1.90;0.98;;;18.90;46.30;;;;;;6245937;28;20417;-66
2022/03/04 03:03:22;;;;;;;1.08;0.95;;;18.90;46.30;;;;;;6245617;28;20026;-66
2022/03/04 03:06:23;;;;;;;1.42;1.15;;;18.80;46.10;;;;;;6245689;28;20033;-67
2022/03/04 03:09:23;;;;;;;1.50;1.10;;;18.90;46.40;;;;;;6245472;28;20455;-67
2022/03/04 03:12:25;;;;;;;1.30;0.95;;;18.90;46.40;;;;;;6245197;28;20105;-67
2022/03/04 03:15:26;;;;;;;1.38;0.85;;;18.90;46.30;;;;;;6245344;28;20025;-67
2022/03/04 03:18:27;;;;;;;1.20;0.80;;;18.90;46.30;;;;;;6245621;28;20048;-68
2022/03/04 03:21:27;;;;;;;1.95;1.08;;;18.80;46.20;;;;;;6245427;28;20384;-67
2022/03/04 03:24:28;;;;;;;0.80;0.80;;;18.90;46.40;;;;;;6244872;28;20057;-67
2022/03/04 03:27:29;;;;;;;1.15;0.70;;;18.90;46.30;;;;;;6244729;28;20393;-67
2022/03/04 03:30:30;;;;;;;1.27;0.93;;;18.90;46.30;;;;;;6245133;28;20033;-67
2022/03/04 03:33:31;;;;;;;1.17;0.77;;;18.80;46.20;;;;;;6244854;28;20024;-67
2022/03/04 03:36:32;;;;;;;1.33;0.85;;;18.90;46.30;;;;;;6245115;28;20030;-68
2022/03/04 03:39:32;;;;;;;2.15;1.17;;;18.80;46.20;;;;;;6244836;28;20028;-68
2022/03/04 03:42:33;;;;;;;1.40;0.93;;;18.90;46.40;;;;;;6235263;28;20454;-67
2022/03/04 03:45:34;;;;;;;1.08;0.90;;;18.80;46.30;;;;;;6220368;28;20041;-67
2022/03/04 03:48:34;;;;;;;1.20;0.95;;;18.90;46.30;;;;;;6220088;28;20216;-67
2022/03/04 03:51:35;;;;;;;1.13;0.75;;;18.80;46.20;;;;;;6228879;28;20095;-66
2022/03/04 03:54:35;;;;;;;1.65;1.00;;;18.80;46.30;;;;;;6244590;28;20021;-68
2022/03/04 03:57:36;;;;;;;1.35;0.90;;;18.90;46.30;;;;;;6244392;28;20124;-68
2022/03/04 04:00:37;;;;;;;1.60;1.02;;;18.80;46.20;;;;;;6244451;28;20084;-68
2022/03/04 04:03:37;;;;;;;1.80;1.20;;;18.80;46.30;;;;;;6244267;28;20032;-68
2022/03/04 04:06:39;;;;;;;1.10;0.93;;;18.80;46.20;;;;;;6244015;28;20040;-68
2022/03/04 04:09:40;;;;;;;1.33;0.88;;;18.80;46.30;;;;;;6244188;28;20068;-68
2022/03/04 04:12:40;;;;;;;1.15;0.75;;;18.90;46.40;;;;;;6244368;28;20033;-68
2022/03/04 04:15:41;;;;;;;0.98;0.73;;;18.80;46.30;;;;;;6244118;28;20017;-68
2022/03/04 04:18:41;;;;;;;1.33;0.82;;;18.80;46.30;;;;;;6243869;28;20021;-68
2022/03/04 04:21:42;;;;;;;1.33;0.80;;;18.80;46.30;;;;;;6244148;28;20021;-68
2022/03/04 04:24:43;;;;;;;1.58;0.82;;;18.80;46.20;;;;;;6242799;28;20046;-67
2022/03/04 04:27:43;;;;;;;1.60;0.95;;;18.80;46.30;;;;;;6243995;28;20120;-68
2022/03/04 04:30:44;;;;;;;0.88;0.85;;;18.80;46.30;;;;;;6243528;28;20029;-68
2022/03/04 04:33:44;;;;;;;3.33;1.25;;;18.80;46.30;;;;;;6243576;28;20104;-68
2022/03/04 04:36:45;;;;;;;1.20;0.80;;;18.80;46.20;;;;;;6243786;28;20108;-68
2022/03/04 04:39:45;;;;;;;1.63;1.10;;;18.80;46.30;;;;;;6243586;28;20029;-68
2022/03/04 04:42:46;;;;;;;1.48;1.00;;;18.80;46.30;;;;;;6232386;28;20067;-68
2022/03/04 04:45:47;;;;;;;1.65;1.00;;;18.80;46.20;;;;;;6218942;28;20084;-68
2022/03/04 04:48:48;;;;;;;1.40;1.00;;;18.80;46.30;;;;;;6219070;28;20030;-68
2022/03/04 04:51:48;;;;;;;1.25;0.98;;;18.80;46.30;;;;;;6229207;28;20668;-67
2022/03/04 04:54:49;;;;;;;1.77;1.15;;;18.80;46.30;;;;;;6243727;28;20021;-68
2022/03/04 04:57:49;;;;;;;1.20;0.90;;;18.80;46.30;;;;;;6243416;28;20041;-68
2022/03/04 05:00:53;;;;;;;0.95;0.75;;;18.80;46.30;;;;;;6243141;28;20041;-68
2022/03/04 05:03:54;;;;;;;1.33;0.93;;;18.80;46.20;;;;;;6243390;28;20028;-68
2022/03/04 05:06:55;;;;;;;2.03;0.98;;;18.80;46.30;;;;;;6243130;28;20495;-68
2022/03/04 05:09:55;;;;;;;0.98;0.88;;;18.80;46.30;;;;;;6243430;28;20379;-68
2022/03/04 05:12:56;;;;;;;1.50;0.80;;;18.80;46.40;;;;;;6243046;28;20022;-68
2022/03/04 05:15:56;;;;;;;1.15;0.88;;;18.80;46.30;;;;;;6243363;28;20610;-68
2022/03/04 05:18:58;;;;;;;1.15;0.80;;;18.80;46.30;;;;;;6243063;28;20037;-67
2022/03/04 05:21:58;;;;;;;1.50;0.90;;;18.80;46.30;;;;;;6243305;28;20025;-68
2022/03/04 05:24:59;;;;;;;0.80;0.65;;;18.80;46.30;;;;;;6243016;28;20433;-68
2022/03/04 05:27:59;;;;;;;0.95;0.70;;;18.80;46.30;;;;;;6243002;28;20040;-67
2022/03/04 05:31:00;;;;;;;1.48;0.80;;;18.80;46.30;;;;;;6242867;28;20053;-68
2022/03/04 05:34:00;;;;;;;1.75;1.00;;;18.80;46.30;;;;;;6243380;28;20430;-67
2022/03/04 05:37:01;;;;;;;1.02;0.93;;;18.90;46.30;;;;;;6247806;28;20429;-68
2022/03/04 05:40:01;;;;;;;1.92;1.02;;;18.90;46.30;;;;;;6247745;28;20360;-68
2022/03/04 05:43:02;;;;;;;1.45;0.90;;;18.90;46.30;;;;;;6233928;28;20436;-67
2022/03/04 05:46:03;;;;;;;1.67;0.80;;;18.90;46.30;;;;;;6222823;28;20423;-68
2022/03/04 05:49:03;;;;;;;1.80;0.98;;;18.90;46.40;;;;;;6222986;28;20068;-67
2022/03/04 05:52:05;;;;;;;1.58;0.80;;;18.90;46.30;;;;;;6235286;28;20026;-68
2022/03/04 05:55:06;;;;;;;1.30;0.88;;;18.90;46.30;;;;;;6247135;28;20022;-68
2022/03/04 05:58:06;;;;;;;1.33;0.82;;;18.90;46.30;;;;;;6246846;28;20017;-68
2022/03/04 06:01:07;;;;;;;0.95;0.82;;;18.90;46.20;;;;;;6243478;28;20029;-68
2022/03/04 06:04:08;;;;;;;0.93;0.80;;;18.90;46.20;;;;;;6222602;28;20164;-67
2022/03/04 06:07:08;;;;;;;1.10;0.80;;;18.90;46.30;;;;;;6222340;28;20049;-68
2022/03/04 06:10:09;;;;;;;1.20;0.85;;;18.90;46.30;;;;;;6222887;28;20062;-68
2022/03/04 06:13:10;;;;;;;1.05;0.95;;;18.90;46.30;;;;;;6222186;28;20040;-68
2022/03/04 06:16:10;;;;;;;1.38;0.85;;;18.90;46.20;;;;;;6222564;28;20028;-67
2022/03/04 06:19:11;;;;;;;1.45;0.90;;;18.90;46.30;;;;;;6222143;28;20069;-67
2022/03/04 06:22:11;;;;;;;1.15;0.90;;;18.90;46.20;;;;;;6222225;28;20029;-67
2022/03/04 06:25:14;;;;;;;1.88;1.20;;;18.90;46.40;;;;;;6228958;28;20061;-67
2022/03/04 06:28:15;;;;;;;1.00;0.80;;;18.90;46.30;;;;;;6246386;28;20116;-68
2022/03/04 06:31:15;;;;;;;2.15;1.00;;;18.90;46.30;;;;;;6246846;28;20051;-68
2022/03/04 06:34:16;;;;;;;1.55;0.80;;;18.90;46.30;;;;;;6246323;28;20022;-67
2022/03/04 06:37:16;;;;;;;1.25;0.80;;;18.90;46.30;;;;;;6246272;28;20025;-68
2022/03/04 06:40:17;;;;;;;1.80;0.90;;;18.90;46.30;;;;;;6246598;28;20021;-68
2022/03/04 06:43:18;;;;;;;1.67;1.05;;;18.90;46.30;;;;;;6230765;28;20026;-68
2022/03/04 06:46:18;;;;;;;1.80;1.00;;;18.90;46.30;;;;;;6220870;28;20053;-68
2022/03/04 06:49:19;;;;;;;1.35;0.98;;;18.90;46.30;;;;;;6221230;28;20022;-67
2022/03/04 06:52:21;;;;;;;1.42;1.02;;;18.90;46.30;;;;;;6236444;28;20203;-68
2022/03/04 06:55:22;;;;;;;1.10;0.90;;;18.90;46.40;;;;;;6245955;28;20025;-68
2022/03/04 06:58:23;;;;;;;1.02;0.82;;;18.90;46.30;;;;;;6239168;28;20034;-67
2022/03/04 07:01:24;;;;;;;1.38;0.93;;;18.90;46.30;;;;;;6237594;28;20066;-68
2022/03/04 07:04:25;;;;;;;1.65;0.90;;;18.90;46.30;;;;;;6239371;28;20056;-68
2022/03/04 07:07:25;;;;;;;1.70;1.02;;;18.90;46.40;;;;;;6249707;28;20083;-67
2022/03/04 07:10:26;;;;;;;1.15;0.90;;;18.90;46.30;;;;;;6245654;28;20061;-68
2022/03/04 07:13:27;;;;;;;1.08;0.90;;;18.90;46.30;;;;;;6246533;28;20075;-68
2022/03/04 07:16:27;;;;;;;1.63;1.02;;;18.90;46.40;;;;;;6246225;28;20030;-68
2022/03/04 07:19:28;;;;;;;1.00;0.85;;;18.90;46.40;;;;;;6245972;28;20029;-68
2022/03/04 07:22:28;;;;;;;1.40;0.82;;;18.90;46.50;;;;;;6242958;28;20029;-68
2022/03/04 07:25:29;;;;;;;1.45;0.90;;;18.90;46.40;;;;;;6235163;28;20615;-68
2022/03/04 07:28:29;;;;;;;2.55;1.23;;;18.90;46.50;;;;;;6245856;28;20037;-68
2022/03/04 07:31:30;;;;;;;2.00;1.00;;;18.90;46.50;;;;;;6245854;28;20037;-68
2022/03/04 07:34:30;;;;;;;1.48;1.00;;;18.90;46.50;;;;;;6245647;28;20071;-68
2022/03/04 07:37:31;;;;;;;2.17;1.40;;;18.90;46.50;;;;;;6246216;28;20167;-68
2022/03/04 07:40:31;;;;;;;1.35;0.90;;;18.90;46.50;;;;;;6245289;28;20151;-67
2022/03/04 07:43:32;;;;;;;2.63;1.33;;;18.90;46.50;;;;;;6228232;28;20091;-68
2022/03/04 07:46:33;;;;;;;2.58;1.40;;;18.90;46.50;;;;;;6220698;28;20032;-67
2022/03/04 07:49:34;;;;;;;1.42;1.20;;;18.90;46.50;;;;;;6239134;28;20117;-68
2022/03/04 07:52:34;;;;;;;1.95;1.00;;;18.90;46.50;;;;;;6245148;28;20455;-67
2022/03/04 07:55:35;;;;;;;2.67;1.20;;;18.90;46.50;;;;;;6266983;28;20033;-68
2022/03/04 07:58:35;;;;;;;3.58;1.40;;;18.90;46.50;;;;;;6269677;28;20433;-67
2022/03/04 08:01:36;;;;;;;1.58;0.98;;;18.90;46.50;;;;;;6269751;28;20471;-68
2022/03/04 08:04:36;;;;;;;3.85;0.93;;;18.90;46.50;;;;;;6255946;28;20022;-67
2022/03/04 08:07:38;;;;;;;1.20;0.90;;;18.90;46.50;;;;;;6244791;28;20037;-67
2022/03/04 08:10:38;;;;;;;3.03;0.80;;;18.90;46.60;;;;;;6244605;28;20103;-67
2022/03/04 08:13:39;;;;;;;1.92;1.20;;;18.90;46.50;;;;;;6244799;28;20025;-68
2022/03/04 08:16:39;;;;;;;2.33;0.95;;;18.90;46.50;;;;;;6244720;28;20117;-68
2022/03/04 08:19:41;;;;;;;2.03;1.20;;;18.90;46.60;;;;;;6245028;28;20387;-68
2022/03/04 08:22:41;;;;;;;2.70;1.30;;;18.90;46.50;;;;;;6244687;28;20136;-68
2022/03/04 08:25:43;;;;;;;1.23;1.00;;;18.90;46.60;;;;;;6243898;28;20053;-67
2022/03/04 08:28:43;;;;;;;1.35;0.90;;;18.90;46.60;;;;;;6244860;28;20114;-67
2022/03/04 08:31:45;;;;;;;2.50;1.10;;;18.90;46.60;;;;;;6244873;28;20263;-67
2022/03/04 08:34:46;;;;;;;1.45;1.00;;;18.90;46.60;;;;;;6244274;28;20021;-67
2022/03/04 08:37:46;;;;;;;1.50;1.10;;;18.90;46.70;;;;;;6244582;28;20026;-67
2022/03/04 08:40:47;;;;;;;1.67;1.00;;;18.90;46.60;;;;;;6244028;28;20423;-67
2022/03/04 08:43:50;;;;;;;1.88;1.20;;;18.90;46.60;;;;;;6224978;28;20080;-67
2022/03/04 08:46:51;;;;;;;1.60;1.10;;;18.90;46.60;;;;;;6227359;28;20037;-68
2022/03/04 08:49:52;;;;;;;1.30;0.93;;;19.00;46.70;;;;;;6244520;28;20033;-67
2022/03/04 08:52:52;;;;;;;1.83;1.15;;;18.90;46.60;;;;;;6236580;28;20163;-65
2022/03/04 08:55:53;;;;;;;1.20;0.82;;;18.90;46.60;;;;;;6228643;28;20504;-68
2022/03/04 08:58:54;;;;;;;1.13;1.02;;;18.90;46.60;;;;;;6244294;28;20033;-68
2022/03/04 09:01:56;;;;;;;2.03;1.10;;;19.00;46.70;;;;;;6251019;28;20383;-68
2022/03/04 09:04:57;;;;;;;1.95;1.10;;;19.00;46.70;;;;;;6264917;28;20044;-67
2022/03/04 09:07:57;;;;;;;1.95;0.82;;;19.00;46.60;;;;;;6242525;28;20030;-68
2022/03/04 09:10:58;;;;;;;1.40;0.90;;;19.00;46.50;;;;;;6246205;28;20056;-67
2022/03/04 09:14:00;;;;;;;1.25;1.00;;;19.00;46.50;;;;;;6249246;28;20108;-67
2022/03/04 09:17:00;;;;;;;1.50;1.05;;;19.10;46.50;;;;;;6248980;28;20029;-67
2022/03/04 09:20:02;;;;;;;1.67;0.80;;;19.10;46.40;;;;;;6248867;28;20021;-67
2022/03/04 09:23:03;;;;;;;3.55;1.05;;;19.10;46.20;;;;;;6248661;28;20480;-67
2022/03/04 09:26:04;;;;;;;7.10;1.25;;;19.10;46.10;;;;;;6248784;28;20033;-67
2022/03/04 09:29:05;;;;;;;2.85;0.95;;;19.10;46.30;;;;;;6247292;28;20033;-67
2022/03/04 09:32:06;;;;;;;5.38;1.00;;;19.10;46.30;;;;;;6263810;28;20027;-67
2022/03/04 09:35:07;;;;;;;2.20;0.90;;;19.10;46.30;;;;;;6274530;28;20017;-67
2022/03/04 09:38:08;;;;;;;1.58;1.00;;;19.10;46.30;;;;;;6274819;28;20032;-68
2022/03/04 09:41:09;;;;;;;0.95;0.77;;;19.10;46.30;;;;;;6274639;28;20472;-68
2022/03/04 09:44:10;;;;;;;5.18;1.08;;;19.10;46.30;;;;;;6228750;28;20101;-68
2022/03/04 09:47:11;;;;;;;3.65;1.20;;;19.10;46.20;;;;;;6225552;28;20034;-68
2022/03/04 09:50:15;;;;;;;3.95;1.30;;;19.10;46.10;;;;;;6225230;28;20021;-68
2022/03/04 09:53:16;;;;;;;2.10;1.30;;;19.10;46.10;;;;;;6247682;28;20552;-68
2022/03/04 09:56:19;;;;;;;2.00;1.00;;;19.10;46.00;;;;;;6249063;28;20022;-68
2022/03/04 09:59:19;;;;;;;1.48;0.90;;;19.20;46.10;;;;;;6249505;28;20025;-68
2022/03/04 10:02:20;;;;;;;2.83;0.90;;;19.10;46.00;;;;;;6249548;28;20052;-68
2022/03/04 10:05:20;;;;;;;5.15;0.95;;;19.20;46.10;;;;;;6249400;28;20033;-68
2022/03/04 10:08:22;;;;;;;1.60;0.98;;;19.10;46.00;;;;;;6248557;28;20033;-68
2022/03/04 10:11:30;;;;;;;2.25;1.10;;;19.10;45.90;;;;;;6248739;28;20048;-68
2022/03/04 10:14:30;;;;;;;1.30;0.80;;;19.20;46.00;;;;;;6249069;28;20239;-68
2022/03/04 10:17:33;;;;;;;1.00;0.85;;;19.20;45.90;;;;;;6249576;28;20032;-67
2022/03/04 10:20:42;;;;;;;1.45;0.90;;;19.20;46.50;;;;;;6248726;28;20392;-68
2022/03/04 10:23:42;;;;;;;4.60;1.13;;;19.20;45.80;;;;;;6246890;28;20054;-67
2022/03/04 10:26:43;;;;;;;3.85;1.38;;;19.20;45.80;;;;;;6248221;28;20040;-68
2022/03/04 10:29:48;;;;;;;3.80;1.00;;;19.20;45.80;;;;;;6248498;28;20105;-68
2022/03/04 10:32:49;;;;;;;1.70;1.00;;;19.20;45.80;;;;;;6248685;28;20028;-68
2022/03/04 10:36:09;;;;;;;1.95;1.15;;;19.20;45.80;;;;;;6248170;28;20025;-67
2022/03/04 10:39:09;;;;;;;2.42;1.00;;;19.20;45.80;;;;;;6248593;28;20029;-67
2022/03/04 10:42:10;;;;;;;2.28;1.08;;;19.20;45.70;;;;;;6241731;28;20100;-68
2022/03/04 10:45:14;;;;;;;1.58;0.90;;;19.20;45.70;;;;;;6223918;28;20030;-67
2022/03/04 10:48:19;;;;;;;1.83;1.10;;;19.20;45.70;;;;;;6223444;28;20722;-67
2022/03/04 10:51:34;;;;;;;3.15;1.45;;;19.20;45.70;;;;;;6230257;28;20104;-68
2022/03/04 10:54:34;;;;;;;1.45;1.10;;;19.20;45.70;;;;;;6247903;28;20526;-67
2022/03/04 10:57:41;;;;;;;1.55;0.90;;;19.20;45.70;;;;;;6247508;28;20025;-68
2022/03/04 11:01:02;;;;;;;2.88;1.10;;;19.20;45.70;;;;;;6247846;28;20033;-67
2022/03/04 11:04:03;;;;;;;1.30;0.88;;;19.20;45.70;;;;;;6248308;28;20380;-68
2022/03/04 11:07:04;;;;;;;1.52;0.90;;;19.20;45.60;;;;;;6247320;28;20476;-68
2022/03/04 11:10:04;;;;;;;0.77;0.70;;;19.20;45.60;;;;;;6247725;28;20029;-68
2022/03/04 11:13:07;;;;;;;1.98;1.08;;;19.20;45.50;;;;;;6247553;28;20040;-68
2022/03/04 11:16:09;;;;;;;0.98;0.77;;;19.20;45.50;;;;;;6247594;28;20112;-68
2022/03/04 11:19:10;;;;;;;2.08;1.13;;;19.20;45.40;;;;;;6247335;28;20451;-67
2022/03/04 11:22:11;;;;;;;1.13;0.80;;;19.20;45.50;;;;;;6247593;28;20071;-68
2022/03/04 11:25:14;;;;;;;1.40;0.90;;;19.20;45.50;;;;;;6246843;28;20053;-68
2022/03/04 11:28:16;;;;;;;1.40;0.90;;;19.20;45.50;;;;;;6247145;28;20083;-68
2022/03/04 11:31:22;;;;;;;1.83;0.98;;;19.20;45.50;;;;;;6247227;28;20018;-68
2022/03/04 11:34:42;;;;;;;1.00;0.80;;;19.20;45.50;;;;;;6246928;28;20022;-67
2022/03/04 11:37:50;;;;;;;2.05;1.20;;;19.20;45.50;;;;;;6247104;28;20030;-68
2022/03/04 11:40:51;;;;;;;1.33;1.02;;;19.20;45.40;;;;;;6247273;28;20039;-66
2022/03/04 11:44:00;;;;;;;3.83;1.00;;;19.20;45.50;;;;;;6227191;28;20026;-68
2022/03/04 11:47:08;;;;;;;1.25;0.90;;;19.20;45.50;;;;;;6222125;28;20046;-68
2022/03/04 11:50:30;;;;;;;1.23;1.00;;;19.20;45.40;;;;;;6222243;28;20061;-67
2022/03/04 11:53:30;;;;;;;0.90;0.80;;;19.20;45.50;;;;;;6246384;28;20022;-68
2022/03/04 11:56:52;;;;;;;1.30;0.90;;;19.20;45.50;;;;;;6246801;28;20075;-67
2022/03/04 12:00:20;;;;;;;1.15;0.90;;;19.20;45.50;;;;;;6246612;28;20041;-68
2022/03/04 12:03:21;;;;;;;1.20;0.93;;;19.20;45.50;;;;;;6246395;28;20044;-68
2022/03/04 12:06:25;;;;;;;1.20;1.00;;;19.20;45.50;;;;;;6236116;28;20123;-68
2022/03/04 12:09:28;;;;;;;0.80;0.70;;;19.20;45.50;;;;;;6239516;28;20021;-68
2022/03/04 12:12:29;;;;;;;0.75;0.68;;;19.20;45.50;;;;;;6243687;28;20018;-68
2022/03/04 12:15:36;;;;;;;0.82;0.80;;;19.20;45.50;;;;;;6244259;28;20021;-67
2022/03/04 12:18:40;;;;;;;1.33;0.98;;;19.20;45.50;;;;;;6243817;28;20091;-67
2022/03/04 12:21:41;;;;;;;4.90;0.95;;;19.20;45.60;;;;;;6244338;28;20226;-68
2022/03/04 12:24:55;;;;;;;2.03;1.20;;;19.20;45.60;;;;;;6242543;28;20049;-68
2022/03/04 12:27:56;;;;;;;2.50;1.10;;;19.20;45.80;;;;;;6264347;28;20492;-68
2022/03/04 12:31:03;;;;;;;3.17;1.13;;;19.20;45.70;;;;;;6268712;28;20028;-68
2022/03/04 12:34:03;;;;;;;2.28;1.23;;;19.20;45.70;;;;;;6269411;28;20025;-68
2022/03/04 12:37:08;;;;;;;3.17;1.13;;;19.20;45.70;;;;;;6268199;28;20071;-68
2022/03/04 12:40:10;;;;;;;2.88;1.00;;;19.20;45.80;;;;;;6269197;28;20057;-68
2022/03/04 12:43:10;;;;;;;2.67;1.13;;;19.20;45.80;;;;;;6239618;28;20451;-68
2022/03/04 12:46:12;;;;;;;1.00;0.85;;;19.20;45.80;;;;;;6218633;28;20034;-68
2022/03/04 12:49:16;;;;;;;0.93;0.77;;;19.20;45.80;;;;;;6219153;28;20105;-68
2022/03/04 12:52:20;;;;;;;1.75;1.00;;;19.20;45.80;;;;;;6233456;28;20112;-68
2022/03/04 12:55:21;;;;;;;1.77;1.02;;;19.20;45.80;;;;;;6243449;28;20056;-68
2022/03/04 12:58:34;;;;;;;1.75;0.93;;;19.20;45.80;;;;;;6243284;28;20072;-68
2022/03/04 13:01:41;;;;;;;1.77;0.90;;;19.20;45.80;;;;;;6230786;28;20460;-68
2022/03/04 13:04:55;;;;;;;1.98;1.00;;;19.20;45.80;;;;;;6219038;28;20041;-68
2022/03/04 13:07:56;;;;;;;1.08;0.90;;;19.30;45.80;;;;;;6218659;28;20038;-67
2022/03/04 13:11:17;;;;;;;2.15;0.90;;;19.30;45.90;;;;;;6218800;28;20022;-67
2022/03/04 13:14:18;;;;;;;4.50;1.30;;;19.30;46.00;;;;;;6265702;28;20021;-67
2022/03/04 13:17:19;;;;;;;2.55;0.90;;;19.30;45.90;;;;;;6243582;28;20025;-67
2022/03/04 13:20:20;;;;;;;4.13;1.10;;;19.30;45.90;;;;;;6242906;28;20033;-67
2022/03/04 13:23:20;;;;;;;5.03;1.20;;;19.20;45.90;;;;;;6243292;28;20080;-67
2022/03/04 13:26:22;;;;;;;2.25;1.05;;;19.20;45.50;;;;;;6249430;28;20063;-67
2022/03/04 13:29:24;;;;;;;3.20;1.25;;;19.20;44.90;;;;;;6268054;28;20099;-67
2022/03/04 13:32:27;;;;;;;4.90;1.30;;;19.10;43.40;;;;;;6267727;28;20480;-67
2022/03/04 13:35:28;;;;;;;7.55;1.45;;;19.10;42.20;;;;;;6267700;28;20036;-66
2022/03/04 13:38:28;;;;;;;2.95;1.20;;;19.10;41.60;;;;;;6262910;28;20025;-67
2022/03/04 13:41:29;;;;;;;2.85;1.20;;;19.10;41.00;;;;;;6242068;28;20036;-67
2022/03/04 13:44:29;;;;;;;6.25;1.02;;;19.10;40.20;;;;;;6218785;28;20057;-67
2022/03/04 13:47:42;;;;;;;3.33;1.30;;;19.10;39.80;;;;;;6207312;28;20049;-67
2022/03/04 13:50:46;;;;;;;6.57;1.42;;;19.10;40.90;;;;;;6220477;28;20022;-67
2022/03/04 13:53:58;;;;;;;3.07;1.17;;;19.10;41.80;;;;;;6238412;28;20029;-67
2022/03/04 13:56:58;;;;;;;6.28;1.30;;;19.10;42.40;;;;;;6237611;28;20038;-67
2022/03/04 14:00:11;;;;;;;4.22;1.10;;;19.10;43.40;;;;;;6252804;28;20402;-67
2022/03/04 14:03:15;;;;;;;3.47;1.30;;;19.10;43.10;;;;;;6223167;28;20022;-67
2022/03/04 14:06:19;;;;;;;3.42;0.80;;;19.10;43.30;;;;;;6222584;28;20045;-67
2022/03/04 14:09:19;;;;;;;5.10;1.00;;;19.10;42.90;;;;;;6234317;28;20033;-67
2022/03/04 14:12:21;;;;;;;1.98;0.98;;;19.10;43.00;;;;;;6246679;28;20144;-67
2022/03/04 14:15:21;;;;;;;4.13;1.20;;;19.10;43.60;;;;;;6247141;28;20032;-67
2022/03/04 14:18:26;;;;;;;4.13;1.30;;;19.10;43.50;;;;;;6246520;28;20101;-67
2022/03/04 14:21:26;;;;;;;2.50;0.82;;;19.10;43.70;;;;;;6243394;28;20033;-67
2022/03/04 14:24:27;;;;;;;2.63;1.02;;;19.10;43.30;;;;;;6234819;28;20146;-66
2022/03/04 14:27:27;;;;;;;3.67;0.93;;;19.10;43.60;;;;;;6261424;28;20043;-67
2022/03/04 14:30:30;;;;;;;4.07;1.10;;;19.10;44.00;;;;;;6271957;28;20025;-68
2022/03/04 14:33:30;;;;;;;2.42;1.23;;;19.10;43.70;;;;;;6271235;28;20033;-67
2022/03/04 14:36:31;;;;;;;1.70;0.90;;;19.10;44.60;;;;;;6249778;28;20091;-67
2022/03/04 14:39:31;;;;;;;2.80;1.00;;;19.10;44.30;;;;;;6246559;28;20030;-65
2022/03/04 14:42:34;;;;;;;2.10;0.90;;;19.10;44.30;;;;;;6237350;28;20045;-67
2022/03/04 14:45:37;;;;;;;2.58;0.80;;;19.20;44.60;;;;;;6221553;28;20076;-67
2022/03/04 14:48:38;;;;;;;5.18;1.15;;;19.20;44.10;;;;;;6221364;28;20099;-67
2022/03/04 14:51:40;;;;;;;4.00;0.90;;;19.20;44.50;;;;;;6230544;28;20026;-68
2022/03/04 14:54:41;;;;;;;2.95;1.25;;;19.20;44.30;;;;;;6245876;28;20041;-68
2022/03/04 14:57:41;;;;;;;1.90;0.90;;;19.10;44.50;;;;;;6245304;28;20626;-68
2022/03/04 15:00:42;;;;;;;1.58;0.98;;;19.10;44.50;;;;;;6251314;28;20035;-68
2022/03/04 15:03:42;;;;;;;3.10;0.90;;;19.10;44.60;;;;;;6270777;28;20029;-68
2022/03/04 15:06:43;;;;;;;1.38;0.93;;;19.10;44.70;;;;;;6260691;28;20033;-68
2022/03/04 15:09:44;;;;;;;2.60;0.80;;;19.10;44.70;;;;;;6245161;28;20481;-68
2022/03/04 15:12:45;;;;;;;2.92;1.10;;;19.10;44.80;;;;;;6245945;28;20021;-68
2022/03/04 15:15:45;;;;;;;1.92;0.90;;;19.10;44.90;;;;;;6270131;28;20099;-68
2022/03/04 15:18:47;;;;;;;1.85;1.00;;;19.10;45.00;;;;;;6270091;28;20039;-68
2022/03/04 15:21:48;;;;;;;1.63;0.82;;;19.10;45.10;;;;;;6270254;28;20064;-68
2022/03/04 15:24:48;;;;;;;2.42;1.02;;;19.10;45.20;;;;;;6270188;28;20520;-67
2022/03/04 15:27:52;;;;;;;1.30;0.80;;;19.10;45.20;;;;;;6250320;28;20033;-68
2022/03/04 15:30:55;;;;;;;1.67;0.90;;;19.10;45.20;;;;;;6244205;28;20033;-68
2022/03/04 15:33:56;;;;;;;2.17;0.95;;;19.10;45.30;;;;;;6245004;28;20037;-68
2022/03/04 15:36:56;;;;;;;2.05;0.90;;;19.10;45.30;;;;;;6244780;28;20025;-69
2022/03/04 15:39:57;;;;;;;1.88;1.15;;;19.10;45.30;;;;;;6245131;28;20104;-68
2022/03/04 15:42:58;;;;;;;1.95;1.00;;;19.10;45.30;;;;;;6245195;28;20140;-68
2022/03/04 15:45:58;;;;;;;2.35;1.33;;;19.10;45.30;;;;;;6244335;28;20052;-68
2022/03/04 15:49:00;;;;;;;2.50;0.82;;;19.10;45.40;;;;;;6244732;28;20040;-68